sensor_id;sensor_type;location;lat;lon;timestamp;pressure;altitude;pressure_sealevel;temperature;humidity
12676;BME280;63820;65.654;21.944;2022-12-07T00:00:26;100259.34;;;-4.85;100.00
12676;BME280;63820;65.654;21.944;2022-12-07T00:03:10;100267.00;;;-4.84;100.00
12676;BME280;63820;65.654;21.944;2022-12-07T00:05:57;100271.22;;;-4.84;100.00
12676;BME280;63820;65.654;21.944;2022-12-07T00:08:41;100268.75;;;-4.80;100.00
12676;BME280;63820;65.654;21.944;2022-12-07T00:11:25;100265.47;;;-4.73;100.00
12676;BME280;63820;65.654;21.944;2022-12-07T00:14:14;100260.44;;;-4.70;100.00
12676;BME280;63820;65.654;21.944;2022-12-07T00:16:59;100256.28;;;-4.66;100.00
12676;BME280;63820;65.654;21.944;2022-12-07T00:19:43;100264.81;;;-4.61;100.00
12676;BME280;63820;65.654;21.944;2022-12-07T00:22:27;100266.56;;;-4.57;100.00
12676;BME280;63820;65.654;21.944;2022-12-07T00:25:12;100268.28;;;-4.54;100.00
12676;BME280;63820;65.654;21.944;2022-12-07T00:27:56;100264.88;;;-4.55;100.00
12676;BME280;63820;65.654;21.944;2022-12-07T00:30:40;100270.00;;;-4.53;100.00
12676;BME280;63820;65.654;21.944;2022-12-07T00:33:24;100260.69;;;-4.53;100.00
12676;BME280;63820;65.654;21.944;2022-12-07T00:36:10;100260.75;;;-4.48;100.00
12676;BME280;63820;65.654;21.944;2022-12-07T00:38:57;100268.44;;;-4.44;100.00
12676;BME280;63820;65.654;21.944;2022-12-07T00:41:42;100267.66;;;-4.38;100.00
12676;BME280;63820;65.654;21.944;2022-12-07T00:44:26;100266.84;;;-4.36;100.00
12676;BME280;63820;65.654;21.944;2022-12-07T00:47:10;100274.50;;;-4.34;100.00
12676;BME280;63820;65.654;21.944;2022-12-07T00:49:54;100274.50;;;-4.34;100.00
12676;BME280;63820;65.654;21.944;2022-12-07T00:52:38;100274.53;;;-4.31;100.00
12676;BME280;63820;65.654;21.944;2022-12-07T00:55:22;100277.09;;;-4.30;100.00
12676;BME280;63820;65.654;21.944;2022-12-07T00:58:06;100269.53;;;-4.25;100.00
12676;BME280;63820;65.654;21.944;2022-12-07T01:00:51;100272.94;;;-4.23;100.00
12676;BME280;63820;65.654;21.944;2022-12-07T01:03:35;100269.50;;;-4.26;100.00
12676;BME280;63820;65.654;21.944;2022-12-07T01:06:24;100279.66;;;-4.28;100.00
12676;BME280;63820;65.654;21.944;2022-12-07T01:09:09;100275.41;;;-4.28;100.00
12676;BME280;63820;65.654;21.944;2022-12-07T01:11:54;100278.78;;;-4.29;100.00
12676;BME280;63820;65.654;21.944;2022-12-07T01:14:37;100284.75;;;-4.25;100.00
12676;BME280;63820;65.654;21.944;2022-12-07T01:17:21;100270.38;;;-4.26;100.00
12676;BME280;63820;65.654;21.944;2022-12-07T01:20:06;100278.81;;;-4.27;100.00
12676;BME280;63820;65.654;21.944;2022-12-07T01:22:50;100282.22;;;-4.26;100.00
12676;BME280;63820;65.654;21.944;2022-12-07T01:25:34;100283.06;;;-4.26;100.00
12676;BME280;63820;65.654;21.944;2022-12-07T01:28:18;100275.41;;;-4.28;100.00
12676;BME280;63820;65.654;21.944;2022-12-07T01:31:05;100278.78;;;-4.29;100.00
12676;BME280;63820;65.654;21.944;2022-12-07T01:33:52;100275.41;;;-4.29;100.00
12676;BME280;63820;65.654;21.944;2022-12-07T01:36:37;100279.69;;;-4.25;100.00
12676;BME280;63820;65.654;21.944;2022-12-07T01:39:21;100280.53;;;-4.26;100.00
12676;BME280;63820;65.654;21.944;2022-12-07T01:42:11;100274.56;;;-4.28;100.00
12676;BME280;63820;65.654;21.944;2022-12-07T01:48:01;100271.16;;;-4.30;100.00
12676;BME280;63820;65.654;21.944;2022-12-07T01:50:48;100262.72;;;-4.29;100.00
12676;BME280;63820;65.654;21.944;2022-12-07T01:53:36;100258.47;;;-4.30;100.00
12676;BME280;63820;65.654;21.944;2022-12-07T01:56:24;100252.50;;;-4.32;100.00
12676;BME280;63820;65.654;21.944;2022-12-07T01:59:08;100256.72;;;-4.34;100.00
12676;BME280;63820;65.654;21.944;2022-12-07T02:01:54;100252.47;;;-4.35;100.00
12676;BME280;63820;65.654;21.944;2022-12-07T02:04:39;100255.81;;;-4.39;100.00
12676;BME280;63820;65.654;21.944;2022-12-07T02:07:23;100254.09;;;-4.40;100.00
12676;BME280;63820;65.654;21.944;2022-12-07T02:10:20;100264.34;;;-4.34;100.00
12676;BME280;63820;65.654;21.944;2022-12-07T02:13:26;100257.59;;;-4.31;100.00
12676;BME280;63820;65.654;21.944;2022-12-07T02:16:38;100255.00;;;-4.37;100.00
12676;BME280;63820;65.654;21.944;2022-12-07T02:20:23;100263.47;;;-4.35;100.00
12676;BME280;63820;65.654;21.944;2022-12-07T02:29:14;100254.19;;;-4.33;100.00
12676;BME280;63820;65.654;21.944;2022-12-07T02:32:15;100253.34;;;-4.33;100.00
12676;BME280;63820;65.654;21.944;2022-12-07T02:38:38;100247.41;;;-4.34;100.00
12676;BME280;63820;65.654;21.944;2022-12-07T02:41:31;100245.69;;;-4.36;100.00
12676;BME280;63820;65.654;21.944;2022-12-07T02:44:20;100254.09;;;-4.40;100.00
12676;BME280;63820;65.654;21.944;2022-12-07T02:47:07;100237.94;;;-4.45;100.00
12676;BME280;63820;65.654;21.944;2022-12-07T02:49:53;100246.34;;;-4.49;100.00
12676;BME280;63820;65.654;21.944;2022-12-07T02:52:37;100248.81;;;-4.55;100.00
12676;BME280;63820;65.654;21.944;2022-12-07T02:55:27;100252.13;;;-4.61;100.00
12676;BME280;63820;65.654;21.944;2022-12-07T03:01:22;100243.50;;;-4.71;100.00
12676;BME280;63820;65.654;21.944;2022-12-07T03:10:24;100247.63;;;-4.79;100.00
12676;BME280;63820;65.654;21.944;2022-12-07T03:16:39;100238.28;;;-4.81;100.00
12676;BME280;63820;65.654;21.944;2022-12-07T03:19:26;100240.00;;;-4.80;100.00
12676;BME280;63820;65.654;21.944;2022-12-07T03:22:13;100239.09;;;-4.84;100.00
12676;BME280;63820;65.654;21.944;2022-12-07T03:24:59;100246.69;;;-4.84;100.00
12676;BME280;63820;65.654;21.944;2022-12-07T03:28:02;100245.91;;;-4.81;100.00
12676;BME280;63820;65.654;21.944;2022-12-07T03:30:56;100246.69;;;-4.84;100.00
12676;BME280;63820;65.654;21.944;2022-12-07T03:33:59;100239.88;;;-4.88;100.00
12676;BME280;63820;65.654;21.944;2022-12-07T03:37:00;100242.31;;;-4.94;100.00
12676;BME280;63820;65.654;21.944;2022-12-07T03:40:19;100240.59;;;-4.95;100.00
12676;BME280;63820;65.654;21.944;2022-12-07T03:43:01;100237.25;;;-4.94;100.00
12676;BME280;63820;65.654;21.944;2022-12-07T03:54:48;100241.47;;;-4.95;100.00
12676;BME280;63820;65.654;21.944;2022-12-07T03:57:34;100248.16;;;-4.98;100.00
12676;BME280;63820;65.654;21.944;2022-12-07T04:00:19;100245.63;;;-5.00;100.00
12676;BME280;63820;65.654;21.944;2022-12-07T04:03:03;100246.47;;;-4.99;100.00
12676;BME280;63820;65.654;21.944;2022-12-07T04:05:48;100248.09;;;-5.03;100.00
12676;BME280;63820;65.654;21.944;2022-12-07T04:08:33;100248.94;;;-5.04;100.00
12676;BME280;63820;65.654;21.944;2022-12-07T04:11:17;100256.50;;;-5.05;100.00
12676;BME280;63820;65.654;21.944;2022-12-07T04:14:00;100254.81;;;-5.06;100.00
12676;BME280;63820;65.654;21.944;2022-12-07T04:17:03;100253.09;;;-5.07;100.00
12676;BME280;63820;65.654;21.944;2022-12-07T04:19:47;100252.28;;;-5.05;100.00
12676;BME280;63820;65.654;21.944;2022-12-07T04:22:31;100243.88;;;-5.02;100.00
12676;BME280;63820;65.654;21.944;2022-12-07T04:25:16;100255.69;;;-5.04;100.00
12676;BME280;63820;65.654;21.944;2022-12-07T04:28:00;100250.53;;;-5.09;100.00
12676;BME280;63820;65.654;21.944;2022-12-07T04:30:45;100251.34;;;-5.11;100.00
12676;BME280;63820;65.654;21.944;2022-12-07T04:33:29;100250.44;;;-5.15;100.00
12676;BME280;63820;65.654;21.944;2022-12-07T04:36:14;100252.94;;;-5.16;100.00
12676;BME280;63820;65.654;21.944;2022-12-07T04:38:58;100253.72;;;-5.22;100.00
12676;BME280;63820;65.654;21.944;2022-12-07T04:41:42;100251.16;;;-5.23;100.00
12676;BME280;63820;65.654;21.944;2022-12-07T04:44:27;100236.69;;;-5.31;100.00
12676;BME280;63820;65.654;21.944;2022-12-07T04:47:11;100249.38;;;-5.29;100.00
12676;BME280;63820;65.654;21.944;2022-12-07T04:49:55;100256.13;;;-5.30;100.00
12676;BME280;63820;65.654;21.944;2022-12-07T04:52:39;100247.59;;;-5.35;100.00
12676;BME280;63820;65.654;21.944;2022-12-07T04:55:23;100247.50;;;-5.41;100.00
12676;BME280;63820;65.654;21.944;2022-12-07T04:58:07;100248.25;;;-5.46;100.00
12676;BME280;63820;65.654;21.944;2022-12-07T05:00:54;100256.66;;;-5.49;100.00
12676;BME280;63820;65.654;21.944;2022-12-07T05:03:39;100255.72;;;-5.54;100.00
12676;BME280;63820;65.654;21.944;2022-12-07T05:06:23;100263.28;;;-5.55;100.00
12676;BME280;63820;65.654;21.944;2022-12-07T05:09:08;100261.56;;;-5.56;100.00
12676;BME280;63820;65.654;21.944;2022-12-07T05:11:52;100264.88;;;-5.61;100.00
12676;BME280;63820;65.654;21.944;2022-12-07T05:14:36;100269.91;;;-5.62;100.00
12676;BME280;63820;65.654;21.944;2022-12-07T05:17:19;100264.81;;;-5.64;100.00
12676;BME280;63820;65.654;21.944;2022-12-07T05:20:04;100263.13;;;-5.65;100.00
12676;BME280;63820;65.654;21.944;2022-12-07T05:22:48;100264.75;;;-5.68;100.00
12676;BME280;63820;65.654;21.944;2022-12-07T05:25:33;100259.69;;;-5.67;100.00
12676;BME280;63820;65.654;21.944;2022-12-07T05:28:18;100252.88;;;-5.71;100.00
12676;BME280;63820;65.654;21.944;2022-12-07T05:31:02;100258.72;;;-5.73;100.00
12676;BME280;63820;65.654;21.944;2022-12-07T05:33:46;100255.28;;;-5.77;100.00
12676;BME280;63820;65.654;21.944;2022-12-07T05:36:30;100254.41;;;-5.79;100.00
12676;BME280;63820;65.654;21.944;2022-12-07T05:39:15;100260.25;;;-5.81;100.00
12676;BME280;63820;65.654;21.944;2022-12-07T05:42:00;100256.84;;;-5.83;100.00
12676;BME280;63820;65.654;21.944;2022-12-07T05:44:56;100253.44;;;-5.85;100.00
12676;BME280;63820;65.654;21.944;2022-12-07T05:47:40;100246.66;;;-5.86;100.00
12676;BME280;63820;65.654;21.944;2022-12-07T05:50:24;100246.69;;;-5.85;100.00
12676;BME280;63820;65.654;21.944;2022-12-07T05:53:09;100243.31;;;-5.85;100.00
12676;BME280;63820;65.654;21.944;2022-12-07T05:55:53;100248.38;;;-5.85;100.00
12676;BME280;63820;65.654;21.944;2022-12-07T05:58:37;100244.97;;;-5.89;100.00
12676;BME280;63820;65.654;21.944;2022-12-07T06:01:40;100248.31;;;-5.90;100.00
12676;BME280;63820;65.654;21.944;2022-12-07T06:04:27;100235.59;;;-5.93;100.00
12676;BME280;63820;65.654;21.944;2022-12-07T06:07:14;100233.03;;;-5.95;100.00
12676;BME280;63820;65.654;21.944;2022-12-07T06:09:58;100238.06;;;-5.96;100.00
12676;BME280;63820;65.654;21.944;2022-12-07T06:12:42;100236.31;;;-5.99;100.00
12676;BME280;63820;65.654;21.944;2022-12-07T06:15:29;100243.03;;;-6.01;100.00
12676;BME280;63820;65.654;21.944;2022-12-07T06:18:13;100239.69;;;-6.00;100.00
12676;BME280;63820;65.654;21.944;2022-12-07T06:20:59;100239.63;;;-6.03;100.00
12676;BME280;63820;65.654;21.944;2022-12-07T06:23:43;100251.53;;;-5.99;100.00
12676;BME280;63820;65.654;21.944;2022-12-07T06:26:27;100252.25;;;-6.04;100.00
12676;BME280;63820;65.654;21.944;2022-12-07T06:29:12;100244.59;;;-6.07;100.00
12676;BME280;63820;65.654;21.944;2022-12-07T06:31:57;100253.03;;;-6.07;100.00
12676;BME280;63820;65.654;21.944;2022-12-07T06:34:41;100253.00;;;-6.10;100.00
12676;BME280;63820;65.654;21.944;2022-12-07T06:37:26;100247.84;;;-6.13;100.00
12676;BME280;63820;65.654;21.944;2022-12-07T06:40:10;100254.53;;;-6.16;100.00
12676;BME280;63820;65.654;21.944;2022-12-07T06:42:54;100257.84;;;-6.19;100.00
12676;BME280;63820;65.654;21.944;2022-12-07T06:45:38;100263.69;;;-6.23;100.00
12676;BME280;63820;65.654;21.944;2022-12-07T06:48:23;100262.88;;;-6.20;100.00
12676;BME280;63820;65.654;21.944;2022-12-07T06:51:09;100259.50;;;-6.21;100.00
12676;BME280;63820;65.654;21.944;2022-12-07T06:53:53;100270.41;;;-6.23;100.00
12676;BME280;63820;65.654;21.944;2022-12-07T06:56:37;100272.88;;;-6.28;100.00
12676;BME280;63820;65.654;21.944;2022-12-07T06:59:22;100277.06;;;-6.30;100.00
12676;BME280;63820;65.654;21.944;2022-12-07T07:02:08;100287.06;;;-6.36;100.00
12676;BME280;63820;65.654;21.944;2022-12-07T07:04:52;100284.41;;;-6.41;100.00
12676;BME280;63820;65.654;21.944;2022-12-07T07:07:36;100297.00;;;-6.44;100.00
12676;BME280;63820;65.654;21.944;2022-12-07T07:10:20;100293.53;;;-6.49;100.00
12676;BME280;63820;65.654;21.944;2022-12-07T07:13:04;100293.34;;;-6.56;100.00
12676;BME280;63820;65.654;21.944;2022-12-07T07:15:49;100296.63;;;-6.61;100.00
12676;BME280;63820;65.654;21.944;2022-12-07T07:18:34;100300.72;;;-6.66;100.00
12676;BME280;63820;65.654;21.944;2022-12-07T07:21:18;100297.22;;;-6.71;100.00
12676;BME280;63820;65.654;21.944;2022-12-07T07:24:02;100287.94;;;-6.72;100.00
12676;BME280;63820;65.654;21.944;2022-12-07T07:26:46;100296.34;;;-6.73;100.00
12676;BME280;63820;65.654;21.944;2022-12-07T07:29:30;100293.78;;;-6.74;100.00
12676;BME280;63820;65.654;21.944;2022-12-07T07:32:14;100297.16;;;-6.74;100.00
12676;BME280;63820;65.654;21.944;2022-12-07T07:34:58;100295.53;;;-6.72;100.00
12676;BME280;63820;65.654;21.944;2022-12-07T07:37:42;100301.47;;;-6.70;100.00
12676;BME280;63820;65.654;21.944;2022-12-07T07:40:27;100313.38;;;-6.66;100.00
12676;BME280;63820;65.654;21.944;2022-12-07T07:43:12;100310.84;;;-6.66;100.00
12676;BME280;63820;65.654;21.944;2022-12-07T07:45:57;100313.50;;;-6.60;100.00
12676;BME280;63820;65.654;21.944;2022-12-07T07:48:41;100311.91;;;-6.56;100.00
12676;BME280;63820;65.654;21.944;2022-12-07T07:51:25;100317.88;;;-6.52;100.00
12676;BME280;63820;65.654;21.944;2022-12-07T07:54:09;100320.44;;;-6.51;100.00
12676;BME280;63820;65.654;21.944;2022-12-07T07:56:52;100309.66;;;-6.44;100.00
12676;BME280;63820;65.654;21.944;2022-12-07T07:59:36;100313.97;;;-6.40;100.00
12676;BME280;63820;65.654;21.944;2022-12-07T08:02:21;100317.56;;;-6.30;100.00
12676;BME280;63820;65.654;21.944;2022-12-07T08:05:06;100322.59;;;-6.30;100.00
12676;BME280;63820;65.654;21.944;2022-12-07T08:07:51;100329.47;;;-6.24;100.00
12676;BME280;63820;65.654;21.944;2022-12-07T08:10:35;100319.31;;;-6.26;100.00
12676;BME280;63820;65.654;21.944;2022-12-07T08:13:20;100316.13;;;-6.16;100.00
12676;BME280;63820;65.654;21.944;2022-12-07T08:16:09;100322.03;;;-6.17;100.00
12676;BME280;63820;65.654;21.944;2022-12-07T08:18:55;100315.25;;;-6.18;100.00
12676;BME280;63820;65.654;21.944;2022-12-07T08:21:40;100315.25;;;-6.18;100.00
12676;BME280;63820;65.654;21.944;2022-12-07T08:24:23;100308.41;;;-6.22;100.00
12676;BME280;63820;65.654;21.944;2022-12-07T08:27:08;100314.34;;;-6.21;100.00
12676;BME280;63820;65.654;21.944;2022-12-07T08:29:53;100311.00;;;-6.19;100.00
12676;BME280;63820;65.654;21.944;2022-12-07T08:32:37;100308.44;;;-6.20;100.00
12676;BME280;63820;65.654;21.944;2022-12-07T08:35:21;100310.91;;;-6.23;100.00
12676;BME280;63820;65.654;21.944;2022-12-07T08:38:06;100315.91;;;-6.28;100.00
12676;BME280;63820;65.654;21.944;2022-12-07T08:40:56;100313.25;;;-6.34;100.00
12676;BME280;63820;65.654;21.944;2022-12-07T08:43:41;100308.94;;;-6.38;100.00
12676;BME280;63820;65.654;21.944;2022-12-07T08:49:20;100313.69;;;-6.52;100.00
12676;BME280;63820;65.654;21.944;2022-12-07T08:52:07;100314.44;;;-6.56;100.00
12676;BME280;63820;65.654;21.944;2022-12-07T08:54:51;100322.75;;;-6.62;100.00
12676;BME280;63820;65.654;21.944;2022-12-07T08:57:35;100320.09;;;-6.66;100.00
12676;BME280;63820;65.654;21.944;2022-12-07T09:00:20;100307.34;;;-6.71;100.00
12676;BME280;63820;65.654;21.944;2022-12-07T09:03:04;100309.81;;;-6.74;100.00
12676;BME280;63820;65.654;21.944;2022-12-07T09:05:48;100313.13;;;-6.76;100.00
12676;BME280;63820;65.654;21.944;2022-12-07T09:08:37;100313.94;;;-6.77;100.00
12676;BME280;63820;65.654;21.944;2022-12-07T09:11:23;100315.53;;;-6.81;100.00
12676;BME280;63820;65.654;21.944;2022-12-07T09:14:08;100324.88;;;-6.78;100.00
12676;BME280;63820;65.654;21.944;2022-12-07T09:16:52;100324.16;;;-6.73;100.00
12676;BME280;63820;65.654;21.944;2022-12-07T09:19:36;100328.28;;;-6.76;100.00
12676;BME280;63820;65.654;21.944;2022-12-07T09:22:21;100317.47;;;-6.71;100.00
12676;BME280;63820;65.654;21.944;2022-12-07T09:25:05;100324.38;;;-6.64;100.00
12676;BME280;63820;65.654;21.944;2022-12-07T09:27:55;100321.78;;;-6.67;100.00
12676;BME280;63820;65.654;21.944;2022-12-07T09:30:48;100326.19;;;-6.58;100.00
12676;BME280;63820;65.654;21.944;2022-12-07T09:33:33;100326.31;;;-6.53;100.00
12676;BME280;63820;65.654;21.944;2022-12-07T09:36:17;100331.44;;;-6.50;100.00
12676;BME280;63820;65.654;21.944;2022-12-07T09:39:00;100329.91;;;-6.44;100.00
12676;BME280;63820;65.654;21.944;2022-12-07T09:41:45;100337.53;;;-6.42;100.00
12676;BME280;63820;65.654;21.944;2022-12-07T09:44:30;100324.97;;;-6.38;100.00
12676;BME280;63820;65.654;21.944;2022-12-07T09:47:14;100328.50;;;-6.31;100.00
12676;BME280;63820;65.654;21.944;2022-12-07T09:50:04;100325.25;;;-6.25;100.00
12676;BME280;63820;65.654;21.944;2022-12-07T09:52:49;100327.81;;;-6.24;100.00
12676;BME280;63820;65.654;21.944;2022-12-07T09:55:36;100319.47;;;-6.18;100.00
12676;BME280;63820;65.654;21.944;2022-12-07T09:58:25;100325.47;;;-6.13;100.00
12676;BME280;63820;65.654;21.944;2022-12-07T10:01:20;100323.09;;;-6.06;100.00
12676;BME280;63820;65.654;21.944;2022-12-07T10:04:17;100330.72;;;-6.04;100.00
12676;BME280;63820;65.654;21.944;2022-12-07T10:07:02;100337.72;;;-5.93;100.00
12676;BME280;63820;65.654;21.944;2022-12-07T10:09:46;100331.03;;;-5.90;100.00
12676;BME280;63820;65.654;21.944;2022-12-07T10:12:30;100338.75;;;-5.83;100.00
12676;BME280;63820;65.654;21.944;2022-12-07T10:15:14;100332.00;;;-5.82;100.00
12676;BME280;63820;65.654;21.944;2022-12-07T10:17:58;100338.84;;;-5.78;100.00
12676;BME280;63820;65.654;21.944;2022-12-07T10:20:45;100337.91;;;-5.82;100.00
12676;BME280;63820;65.654;21.944;2022-12-07T10:23:30;100356.50;;;-5.81;100.00
12676;BME280;63820;65.654;21.944;2022-12-07T10:29:36;100358.91;;;-5.87;100.00
12676;BME280;63820;65.654;21.944;2022-12-07T10:32:35;100351.31;;;-5.87;100.00
12676;BME280;63820;65.654;21.944;2022-12-07T10:38:16;100345.75;;;-5.71;100.00
12676;BME280;63820;65.654;21.944;2022-12-07T10:41:07;100341.56;;;-5.69;100.00
12676;BME280;63820;65.654;21.944;2022-12-07T10:43:54;100339.00;;;-5.71;100.00
12676;BME280;63820;65.654;21.944;2022-12-07T10:46:46;100336.59;;;-5.63;100.00
12676;BME280;63820;65.654;21.944;2022-12-07T10:50:17;100341.72;;;-5.62;100.00
12676;BME280;63820;65.654;21.944;2022-12-07T10:53:28;100345.22;;;-5.55;100.00
12676;BME280;63820;65.654;21.944;2022-12-07T10:59:25;100333.44;;;-5.53;100.00
12676;BME280;63820;65.654;21.944;2022-12-07T11:11:16;100334.03;;;-5.65;100.00
12676;BME280;63820;65.654;21.944;2022-12-07T11:38:31;100363.91;;;-5.92;100.00
12676;BME280;63820;65.654;21.944;2022-12-07T11:41:23;100356.38;;;-5.87;100.00
12676;BME280;63820;65.654;21.944;2022-12-07T11:44:33;100353.00;;;-5.89;100.00
12676;BME280;63820;65.654;21.944;2022-12-07T11:53:19;100361.22;;;-6.00;100.00
12676;BME280;63820;65.654;21.944;2022-12-07T11:56:11;100358.69;;;-6.00;100.00
12676;BME280;63820;65.654;21.944;2022-12-07T12:02:18;100348.94;;;-6.20;100.00
12676;BME280;63820;65.654;21.944;2022-12-07T12:05:22;100365.03;;;-6.18;100.00
12676;BME280;63820;65.654;21.944;2022-12-07T12:08:19;100358.19;;;-6.24;100.00
12676;BME280;63820;65.654;21.944;2022-12-07T12:11:27;100358.06;;;-6.29;100.00
12676;BME280;63820;65.654;21.944;2022-12-07T12:20:58;100355.56;;;-6.27;100.00
12676;BME280;63820;65.654;21.944;2022-12-07T12:23:50;100346.28;;;-6.28;100.00
12676;BME280;63820;65.654;21.944;2022-12-07T12:26:36;100338.53;;;-6.34;100.00
12676;BME280;63820;65.654;21.944;2022-12-07T12:29:32;100338.63;;;-6.31;100.00
12676;BME280;63820;65.654;21.944;2022-12-07T12:32:21;100351.88;;;-6.41;100.00
12676;BME280;63820;65.654;21.944;2022-12-07T12:35:36;100347.63;;;-6.42;100.00
12676;BME280;63820;65.654;21.944;2022-12-07T12:45:04;100339.25;;;-6.40;100.00
12676;BME280;63820;65.654;21.944;2022-12-07T12:48:02;100340.84;;;-6.45;100.00
12676;BME280;63820;65.654;21.944;2022-12-07T12:50:47;100344.25;;;-6.43;100.00
12676;BME280;63820;65.654;21.944;2022-12-07T12:53:30;100347.44;;;-6.51;100.00
12676;BME280;63820;65.654;21.944;2022-12-07T13:10:45;100356.06;;;-6.78;100.00
12676;BME280;63820;65.654;21.944;2022-12-07T13:13:31;100355.13;;;-6.81;100.00
12676;BME280;63820;65.654;21.944;2022-12-07T13:16:36;100353.56;;;-6.76;100.00
12676;BME280;63820;65.654;21.944;2022-12-07T13:25:53;100359.56;;;-6.73;100.00
12676;BME280;63820;65.654;21.944;2022-12-07T13:28:43;100353.78;;;-6.67;100.00
12676;BME280;63820;65.654;21.944;2022-12-07T13:32:17;100347.00;;;-6.70;100.00
12676;BME280;63820;65.654;21.944;2022-12-07T13:34:40;100347.06;;;-6.67;100.00
12676;BME280;63820;65.654;21.944;2022-12-07T13:37:29;100353.13;;;-6.60;100.00
12676;BME280;63820;65.654;21.944;2022-12-07T13:40:19;100353.94;;;-6.61;100.00
12676;BME280;63820;65.654;21.944;2022-12-07T13:43:13;100344.59;;;-6.64;100.00
12676;BME280;63820;65.654;21.944;2022-12-07T13:45:58;100343.78;;;-6.63;100.00
12676;BME280;63820;65.654;21.944;2022-12-07T13:48:48;100344.53;;;-6.67;100.00
12676;BME280;63820;65.654;21.944;2022-12-07T13:51:36;100347.16;;;-6.62;100.00
12676;BME280;63820;65.654;21.944;2022-12-07T13:54:21;100339.59;;;-6.62;100.00
12676;BME280;63820;65.654;21.944;2022-12-07T13:57:06;100337.84;;;-6.65;100.00
12676;BME280;63820;65.654;21.944;2022-12-07T13:59:52;100329.28;;;-6.70;100.00
12676;BME280;63820;65.654;21.944;2022-12-07T14:05:47;100337.97;;;-6.58;100.00
12676;BME280;63820;65.654;21.944;2022-12-07T14:08:46;100332.84;;;-6.62;100.00
12676;BME280;63820;65.654;21.944;2022-12-07T14:11:30;100342.16;;;-6.61;100.00
12676;BME280;63820;65.654;21.944;2022-12-07T14:14:22;100336.94;;;-6.67;100.00
12676;BME280;63820;65.654;21.944;2022-12-07T14:17:20;100342.09;;;-6.64;100.00
12676;BME280;63820;65.654;21.944;2022-12-07T14:20:36;100345.53;;;-6.60;100.00
12676;BME280;63820;65.654;21.944;2022-12-07T14:23:24;100349.88;;;-6.54;100.00
12676;BME280;63820;65.654;21.944;2022-12-07T14:26:20;100354.88;;;-6.57;100.00
12676;BME280;63820;65.654;21.944;2022-12-07T14:29:42;100354.06;;;-6.56;100.00
12676;BME280;63820;65.654;21.944;2022-12-07T14:32:28;100367.34;;;-6.65;100.00
12676;BME280;63820;65.654;21.944;2022-12-07T14:35:15;100374.66;;;-6.76;100.00
12676;BME280;63820;65.654;21.944;2022-12-07T14:38:00;100367.41;;;-6.62;100.00
12676;BME280;63820;65.654;21.944;2022-12-07T14:40:44;100375.75;;;-6.66;100.00
12676;BME280;63820;65.654;21.944;2022-12-07T14:43:28;100385.22;;;-6.57;100.00
12676;BME280;63820;65.654;21.944;2022-12-07T14:46:12;100374.38;;;-6.53;100.00
12676;BME280;63820;65.654;21.944;2022-12-07T14:48:56;100384.47;;;-6.53;100.00
12676;BME280;63820;65.654;21.944;2022-12-07T14:51:42;100385.41;;;-6.50;100.00
12676;BME280;63820;65.654;21.944;2022-12-07T14:54:30;100387.00;;;-6.53;100.00
12676;BME280;63820;65.654;21.944;2022-12-07T14:57:15;100388.66;;;-6.55;100.00
12676;BME280;63820;65.654;21.944;2022-12-07T14:59:59;100404.25;;;-6.37;100.00
12676;BME280;63820;65.654;21.944;2022-12-07T15:02:47;100393.38;;;-6.35;100.00
12676;BME280;63820;65.654;21.944;2022-12-07T15:05:33;100400.16;;;-6.32;100.00
12676;BME280;63820;65.654;21.944;2022-12-07T15:08:17;100401.84;;;-6.33;100.00
12676;BME280;63820;65.654;21.944;2022-12-07T15:11:01;100409.47;;;-6.31;100.00
12676;BME280;63820;65.654;21.944;2022-12-07T15:13:46;100409.53;;;-6.28;100.00
12676;BME280;63820;65.654;21.944;2022-12-07T15:16:49;100405.19;;;-6.34;100.00
12676;BME280;63820;65.654;21.944;2022-12-07T15:19:33;100411.19;;;-6.30;100.00
12676;BME280;63820;65.654;21.944;2022-12-07T15:22:18;100420.28;;;-6.38;100.00
12676;BME280;63820;65.654;21.944;2022-12-07T15:25:02;100422.06;;;-6.34;100.00
12676;BME280;63820;65.654;21.944;2022-12-07T15:27:48;100423.56;;;-6.41;100.00
12676;BME280;63820;65.654;21.944;2022-12-07T15:30:31;100431.22;;;-6.39;100.00
12676;BME280;63820;65.654;21.944;2022-12-07T15:33:16;100417.59;;;-6.44;100.00
12676;BME280;63820;65.654;21.944;2022-12-07T15:36:00;100422.50;;;-6.50;100.00
12676;BME280;63820;65.654;21.944;2022-12-07T15:38:44;100427.41;;;-6.56;100.00
12676;BME280;63820;65.654;21.944;2022-12-07T15:41:28;100423.75;;;-6.68;100.00
12676;BME280;63820;65.654;21.944;2022-12-07T15:44:13;100431.06;;;-6.78;100.00
12676;BME280;63820;65.654;21.944;2022-12-07T15:47:16;100428.97;;;-6.95;100.00
12676;BME280;63820;65.654;21.944;2022-12-07T15:50:02;100426.88;;;-7.09;100.00
12676;BME280;63820;65.654;21.944;2022-12-07T15:52:46;100439.28;;;-7.18;100.00
12676;BME280;63820;65.654;21.944;2022-12-07T15:55:30;100438.19;;;-7.27;100.00
12676;BME280;63820;65.654;21.944;2022-12-07T15:58:14;100449.78;;;-7.35;100.00
12676;BME280;63820;65.654;21.944;2022-12-07T16:00:58;100454.63;;;-7.42;100.00
12676;BME280;63820;65.654;21.944;2022-12-07T16:03:42;100457.03;;;-7.47;100.00
12676;BME280;63820;65.654;21.944;2022-12-07T16:06:27;100460.19;;;-7.54;100.00
12676;BME280;63820;65.654;21.944;2022-12-07T16:09:11;100461.63;;;-7.62;100.00
12676;BME280;63820;65.654;21.944;2022-12-07T16:11:56;100473.13;;;-7.72;100.00
12676;BME280;63820;65.654;21.944;2022-12-07T16:14:41;100468.50;;;-7.85;100.00
12676;BME280;63820;65.654;21.944;2022-12-07T16:17:25;100462.41;;;-7.92;100.00
12676;BME280;63820;65.654;21.944;2022-12-07T16:20:10;100455.47;;;-7.99;100.00